Time;durP1;ratioP1;P1;durP2;ratioP2;P2;SDS_P1;SDS_P2;PMS_P1;PMS_P2;Temp;Humidity;BMP_temperature;BMP_pressure;BME280_temperature;BME280_humidity;BME280_pressure;Samples;Min_cycle;Max_cycle;Signal;HPM_P1;HPM_P2
2023/06/29 00:00:20;;;;;;;30.75;21.48;;;18.60;99.90;;;;;;5074837;28;20052;-66
2023/06/29 00:02:47;;;;;;;30.73;22.05;;;18.80;99.90;;;;;;5072889;28;20441;-66
2023/06/29 00:05:12;;;;;;;33.28;22.27;;;18.70;99.90;;;;;;5059210;28;20571;-66
2023/06/29 00:07:38;;;;;;;29.70;22.02;;;18.70;99.90;;;;;;5033690;28;20055;-66
2023/06/29 00:10:04;;;;;;;30.02;21.73;;;18.80;99.90;;;;;;5033230;28;20060;-66
2023/06/29 00:12:30;;;;;;;31.63;21.65;;;18.60;99.90;;;;;;5032166;28;20076;-66
2023/06/29 00:14:56;;;;;;;31.75;21.65;;;18.70;99.90;;;;;;5032942;28;20036;-66
2023/06/29 00:17:22;;;;;;;34.88;22.42;;;18.70;99.90;;;;;;5032472;28;20519;-66
2023/06/29 00:19:48;;;;;;;34.70;22.15;;;18.70;99.90;;;;;;5032047;28;20036;-66
2023/06/29 00:22:15;;;;;;;35.63;22.83;;;18.70;99.90;;;;;;5031984;28;20048;-66
2023/06/29 00:24:43;;;;;;;42.78;25.30;;;18.70;99.90;;;;;;5032753;28;20206;-66
2023/06/29 00:27:13;;;;;;;31.42;22.40;;;18.70;99.90;;;;;;5033017;28;20098;-66
2023/06/29 00:29:42;;;;;;;31.80;22.55;;;18.80;99.90;;;;;;5030808;28;20068;-66
2023/06/29 00:32:11;;;;;;;37.35;23.00;;;18.70;99.90;;;;;;5031877;28;20077;-66
2023/06/29 00:34:37;;;;;;;33.38;22.83;;;18.60;99.90;;;;;;5032460;28;20647;-66
2023/06/29 00:37:03;;;;;;;33.15;22.60;;;18.90;99.90;;;;;;5032776;28;20040;-66
2023/06/29 00:39:29;;;;;;;31.25;22.55;;;18.60;99.90;;;;;;5033066;28;20033;-66
2023/06/29 00:41:55;;;;;;;35.10;23.20;;;18.60;99.90;;;;;;5031767;28;20074;-66
2023/06/29 00:44:22;;;;;;;33.05;22.67;;;18.60;99.90;;;;;;5031549;28;20089;-66
2023/06/29 00:46:49;;;;;;;42.20;23.48;;;18.80;99.90;;;;;;5033107;28;20036;-66
2023/06/29 00:49:14;;;;;;;34.90;24.35;;;18.90;99.90;;;;;;5032859;28;20039;-66
2023/06/29 00:51:41;;;;;;;37.70;23.88;;;18.70;99.90;;;;;;5032652;28;20656;-66
2023/06/29 00:54:07;;;;;;;38.38;24.23;;;18.60;99.90;;;;;;5032714;28;20075;-66
2023/06/29 00:56:34;;;;;;;35.25;23.77;;;18.70;99.90;;;;;;5035192;28;20044;-66
2023/06/29 00:59:00;;;;;;;32.53;23.58;;;18.60;99.90;;;;;;5033572;28;20036;-66
2023/06/29 01:01:27;;;;;;;37.15;23.08;;;18.80;99.90;;;;;;5034084;28;20110;-66
2023/06/29 01:03:56;;;;;;;33.83;23.08;;;18.70;99.90;;;;;;5033983;28;20037;-66
2023/06/29 01:06:27;;;;;;;32.35;22.48;;;18.80;99.90;;;;;;5032307;28;20337;-66
2023/06/29 01:08:58;;;;;;;37.17;24.88;;;18.70;99.90;;;;;;5031594;28;20055;-66
2023/06/29 01:11:24;;;;;;;34.45;23.85;;;18.80;99.90;;;;;;5032407;28;20037;-66
2023/06/29 01:13:52;;;;;;;35.03;23.90;;;18.80;99.90;;;;;;5031255;28;20055;-66
2023/06/29 01:16:20;;;;;;;35.38;23.45;;;18.70;99.90;;;;;;5031367;28;20080;-66
2023/06/29 01:18:47;;;;;;;41.22;25.38;;;18.70;99.90;;;;;;5032078;28;20070;-66
2023/06/29 01:23:39;;;;;;;36.58;24.95;;;18.80;99.90;;;;;;4990762;22;20359;-65
2023/06/29 01:26:05;;;;;;;39.75;25.48;;;18.60;99.90;;;;;;4942996;28;20502;-65
2023/06/29 01:28:32;;;;;;;35.38;25.75;;;18.60;99.90;;;;;;4942945;28;20306;-65
2023/06/29 01:31:02;;;;;;;34.97;23.70;;;18.60;99.90;;;;;;4941701;28;20375;-65
2023/06/29 01:33:30;;;;;;;38.13;23.38;;;18.80;99.90;;;;;;4959979;28;20398;-65
2023/06/29 01:36:13;;;;;;;38.55;23.85;;;18.80;99.90;;;;;;4941063;28;20394;-65
2023/06/29 01:38:43;;;;;;;;;;;18.80;99.90;;;;;;4941673;28;20651;-65
2023/06/29 01:41:13;;;;;;;33.83;22.98;;;18.70;99.90;;;;;;4960195;28;20186;-65
2023/06/29 01:43:40;;;;;;;32.35;21.65;;;18.70;99.90;;;;;;4959352;28;20737;-66
2023/06/29 01:46:06;;;;;;;35.10;25.40;;;18.50;99.90;;;;;;4959547;28;20460;-65
2023/06/29 01:48:34;;;;;;;36.50;23.55;;;18.70;99.90;;;;;;5017334;28;20445;-65
2023/06/29 01:50:59;;;;;;;37.40;24.60;;;18.40;99.90;;;;;;5030538;28;20040;-65
2023/06/29 01:53:25;;;;;;;38.35;24.75;;;18.50;99.90;;;;;;5029868;28;20361;-65
2023/06/29 01:55:51;;;;;;;35.75;23.90;;;18.50;99.90;;;;;;5031163;28;20352;-65
2023/06/29 01:58:16;;;;;;;36.38;24.65;;;18.50;99.90;;;;;;5030200;28;20143;-65
2023/06/29 02:00:42;;;;;;;39.50;25.63;;;18.50;99.90;;;;;;5031013;28;20388;-65
2023/06/29 02:03:07;;;;;;;38.13;24.38;;;18.60;99.90;;;;;;5031050;28;20144;-65
2023/06/29 02:05:33;;;;;;;37.75;22.75;;;18.60;99.90;;;;;;5030994;28;20314;-65
2023/06/29 02:07:59;;;;;;;38.25;24.50;;;18.40;99.90;;;;;;5030997;28;20032;-65
2023/06/29 02:10:24;;;;;;;36.97;25.38;;;18.60;99.90;;;;;;5030635;28;20697;-65
2023/06/29 02:12:50;;;;;;;34.72;23.95;;;18.40;99.90;;;;;;5031579;28;20051;-66
2023/06/29 02:15:15;;;;;;;38.22;25.58;;;18.40;99.90;;;;;;5030684;28;20233;-65
2023/06/29 02:17:41;;;;;;;36.72;23.70;;;18.50;99.90;;;;;;5030089;28;20076;-65
2023/06/29 02:20:09;;;;;;;36.33;23.83;;;18.30;99.90;;;;;;5031661;28;20305;-65
2023/06/29 02:22:35;;;;;;;35.63;25.05;;;18.40;99.90;;;;;;5030222;28;20040;-65
2023/06/29 02:25:00;;;;;;;34.95;23.63;;;18.50;99.90;;;;;;5030323;28;20083;-65
2023/06/29 02:27:26;;;;;;;34.60;23.30;;;18.40;99.90;;;;;;5008382;28;20230;-65
2023/06/29 02:29:52;;;;;;;34.53;22.75;;;18.40;99.90;;;;;;4981874;28;20097;-65
2023/06/29 02:32:18;;;;;;;39.03;24.65;;;18.30;99.90;;;;;;5024913;28;20042;-65
2023/06/29 02:34:43;;;;;;;35.15;24.90;;;18.30;99.90;;;;;;5028292;28;20963;-65
2023/06/29 02:37:09;;;;;;;43.95;26.50;;;18.50;99.90;;;;;;5029567;28;20210;-65
2023/06/29 02:39:34;;;;;;;37.65;24.90;;;18.50;99.90;;;;;;5030126;28;20853;-65
2023/06/29 02:42:00;;;;;;;37.72;24.35;;;18.50;99.90;;;;;;5029869;28;20289;-65
2023/06/29 02:44:26;;;;;;;38.67;25.20;;;18.40;99.90;;;;;;5029769;28;20863;-65
2023/06/29 02:46:51;;;;;;;42.08;24.00;;;18.30;99.90;;;;;;5030830;28;20090;-65
2023/06/29 02:49:17;;;;;;;38.67;25.77;;;18.50;99.90;;;;;;5030181;28;20113;-65
2023/06/29 02:51:42;;;;;;;34.67;23.38;;;18.20;99.90;;;;;;5029901;28;20594;-65
2023/06/29 02:54:08;;;;;;;34.67;24.95;;;18.30;99.90;;;;;;5029754;28;20296;-65
2023/06/29 02:56:34;;;;;;;34.88;23.92;;;18.40;99.90;;;;;;5030153;28;20048;-65
2023/06/29 02:59:00;;;;;;;38.78;25.20;;;18.30;99.90;;;;;;5030309;28;20237;-65
2023/06/29 03:01:25;;;;;;;37.03;25.05;;;18.30;99.90;;;;;;5029490;28;20105;-65
2023/06/29 03:03:51;;;;;;;37.92;25.33;;;18.40;99.90;;;;;;5029915;28;20262;-65
2023/06/29 03:06:16;;;;;;;35.72;24.42;;;18.40;99.90;;;;;;5028974;28;20324;-65
2023/06/29 03:08:42;;;;;;;37.78;25.33;;;18.40;99.90;;;;;;5029799;28;20143;-65
2023/06/29 03:11:08;;;;;;;37.95;25.30;;;18.40;99.90;;;;;;5029830;28;20280;-65
2023/06/29 03:13:33;;;;;;;36.30;24.75;;;18.50;99.90;;;;;;5030339;28;20966;-65
2023/06/29 03:16:01;;;;;;;38.28;24.35;;;18.40;99.90;;;;;;5029047;28;20860;-65
2023/06/29 03:18:27;;;;;;;37.78;24.20;;;18.30;99.90;;;;;;5029896;28;20938;-65
2023/06/29 03:20:52;;;;;;;40.38;26.27;;;18.20;99.90;;;;;;5030219;28;20055;-65
2023/06/29 03:23:18;;;;;;;41.22;24.77;;;18.30;99.90;;;;;;5013464;28;20048;-65
2023/06/29 03:25:43;;;;;;;39.17;26.23;;;18.50;99.90;;;;;;5031029;28;20858;-65
2023/06/29 03:28:09;;;;;;;37.75;24.35;;;18.50;99.90;;;;;;5029719;28;20133;-65
2023/06/29 03:30:35;;;;;;;37.53;25.05;;;18.30;99.90;;;;;;5029868;28;20041;-65
2023/06/29 03:33:01;;;;;;;38.42;26.30;;;18.40;99.90;;;;;;5027905;28;20959;-65
2023/06/29 03:35:27;;;;;;;35.15;24.27;;;18.30;99.90;;;;;;5011424;28;20044;-65
2023/06/29 03:37:52;;;;;;;38.10;24.98;;;18.20;99.90;;;;;;5031084;28;20052;-65
2023/06/29 03:40:18;;;;;;;37.50;24.70;;;18.40;99.90;;;;;;5014094;28;20206;-65
2023/06/29 03:42:43;;;;;;;33.78;23.20;;;18.30;99.90;;;;;;5029605;28;20047;-66
2023/06/29 03:45:09;;;;;;;35.78;24.13;;;18.30;99.90;;;;;;5027920;28;20121;-66
2023/06/29 03:47:35;;;;;;;37.55;23.42;;;18.20;99.90;;;;;;5028601;28;20844;-66
2023/06/29 03:50:00;;;;;;;34.22;23.48;;;18.30;99.90;;;;;;5028861;28;20043;-65
2023/06/29 03:52:26;;;;;;;34.72;24.65;;;18.30;99.90;;;;;;5029965;28;20082;-66
2023/06/29 03:54:52;;;;;;;37.88;23.75;;;18.50;99.90;;;;;;5030050;28;20322;-66
2023/06/29 03:57:17;;;;;;;33.70;22.38;;;18.40;99.90;;;;;;5030191;28;20043;-66
2023/06/29 03:59:43;;;;;;;32.72;21.85;;;18.40;99.90;;;;;;5030119;28;20143;-66
2023/06/29 04:02:09;;;;;;;36.60;24.27;;;18.30;99.90;;;;;;5028724;28;20268;-66
2023/06/29 04:04:34;;;;;;;36.25;23.90;;;18.40;99.90;;;;;;5029264;28;20059;-66
2023/06/29 04:07:00;;;;;;;36.13;22.95;;;18.60;99.90;;;;;;5029650;28;20051;-66
2023/06/29 04:09:26;;;;;;;32.78;22.30;;;18.40;99.90;;;;;;5029331;28;20036;-66
2023/06/29 04:11:51;;;;;;;34.45;23.85;;;18.30;99.90;;;;;;5029018;28;20068;-65
2023/06/29 04:14:17;;;;;;;37.40;24.52;;;18.60;99.90;;;;;;5029449;28;20863;-65
2023/06/29 04:16:45;;;;;;;38.67;23.35;;;18.60;99.90;;;;;;5013460;28;20040;-66
2023/06/29 04:19:11;;;;;;;35.72;23.33;;;18.60;99.90;;;;;;5012052;28;20106;-66
2023/06/29 04:21:37;;;;;;;36.10;24.02;;;18.50;99.90;;;;;;5028991;28;20036;-66
2023/06/29 04:24:02;;;;;;;37.28;23.75;;;18.60;99.90;;;;;;5029268;28;20210;-66
2023/06/29 04:26:28;;;;;;;38.35;24.27;;;18.50;99.90;;;;;;5029241;28;20084;-64
2023/06/29 04:29:05;;;;;;;38.75;25.02;;;18.70;99.90;;;;;;5030621;28;20083;-65
2023/06/29 04:31:32;;;;;;;39.15;25.17;;;18.70;99.90;;;;;;5013862;28;20365;-65
2023/06/29 04:34:02;;;;;;;40.33;24.98;;;18.50;99.90;;;;;;5029780;28;20051;-65
2023/06/29 04:36:28;;;;;;;34.15;21.98;;;18.70;99.90;;;;;;5013518;28;20048;-65
2023/06/29 04:38:54;;;;;;;36.58;23.30;;;18.70;99.90;;;;;;5029650;28;20141;-65
2023/06/29 04:41:24;;;;;;;36.83;23.45;;;18.50;99.90;;;;;;5012689;28;20307;-65
2023/06/29 04:43:53;;;;;;;33.00;22.48;;;18.70;99.90;;;;;;5032718;28;20292;-66
2023/06/29 04:46:18;;;;;;;33.70;22.85;;;18.80;99.90;;;;;;5014754;28;20503;-64
2023/06/29 04:48:46;;;;;;;36.03;23.55;;;18.80;99.90;;;;;;5032754;28;20043;-65
2023/06/29 04:51:13;;;;;;;29.85;21.48;;;18.90;99.90;;;;;;5033728;28;20370;-65
2023/06/29 04:53:38;;;;;;;33.05;22.10;;;18.90;99.90;;;;;;5014541;28;20059;-65
2023/06/29 04:56:04;;;;;;;34.67;21.58;;;18.90;99.90;;;;;;5032195;28;20036;-65
2023/06/29 04:58:30;;;;;;;35.17;23.63;;;18.90;99.90;;;;;;5032629;28;20097;-65
2023/06/29 05:00:57;;;;;;;33.92;22.38;;;19.00;99.90;;;;;;5031429;28;20234;-65
2023/06/29 05:03:24;;;;;;;35.22;22.92;;;18.90;99.90;;;;;;5032333;28;20046;-65
2023/06/29 05:05:50;;;;;;;36.25;23.75;;;19.10;99.90;;;;;;5032029;28;20041;-65
2023/06/29 05:08:15;;;;;;;29.45;21.00;;;19.20;99.90;;;;;;5032564;28;20249;-65
2023/06/29 05:10:41;;;;;;;34.83;21.67;;;19.20;99.90;;;;;;5031706;28;20028;-65
2023/06/29 05:13:07;;;;;;;32.70;21.65;;;19.20;99.90;;;;;;5031090;28;20222;-65
2023/06/29 05:15:32;;;;;;;33.17;20.52;;;19.30;99.90;;;;;;5032149;28;20055;-65
2023/06/29 05:17:58;;;;;;;36.38;21.88;;;19.40;99.90;;;;;;5032100;28;20330;-66
2023/06/29 05:20:24;;;;;;;32.42;21.23;;;19.30;99.90;;;;;;5031964;28;20848;-66
2023/06/29 05:22:49;;;;;;;31.63;20.73;;;19.40;99.90;;;;;;5013744;28;20072;-65
2023/06/29 05:25:15;;;;;;;37.83;24.13;;;19.40;99.90;;;;;;5031130;28;20844;-66
2023/06/29 05:27:41;;;;;;;31.15;22.50;;;19.50;99.90;;;;;;5031785;28;20032;-66
2023/06/29 05:30:08;;;;;;;30.42;19.85;;;19.40;99.90;;;;;;5031559;28;20036;-65
2023/06/29 05:32:35;;;;;;;29.75;20.10;;;19.50;99.90;;;;;;5033241;28;20144;-66
2023/06/29 05:35:01;;;;;;;34.72;21.08;;;19.40;99.90;;;;;;5031625;28;20047;-64
2023/06/29 05:37:27;;;;;;;28.25;21.27;;;19.50;99.90;;;;;;5013900;28;20222;-64
2023/06/29 05:39:55;;;;;;;27.80;19.25;;;19.60;99.90;;;;;;5031736;28;20032;-64
2023/06/29 05:42:21;;;;;;;27.33;19.50;;;19.80;99.90;;;;;;5030495;28;20059;-64
2023/06/29 05:44:46;;;;;;;26.88;19.48;;;19.80;99.90;;;;;;5030460;28;20877;-66
2023/06/29 05:47:12;;;;;;;26.98;18.08;;;19.70;99.90;;;;;;5013638;28;20059;-66
2023/06/29 05:49:38;;;;;;;30.98;19.23;;;19.80;99.90;;;;;;5032799;28;20147;-66
2023/06/29 05:52:04;;;;;;;26.30;19.42;;;19.80;99.90;;;;;;5013180;28;20047;-66
2023/06/29 05:54:29;;;;;;;26.05;18.90;;;20.00;99.90;;;;;;5030402;28;20143;-66
2023/06/29 05:56:55;;;;;;;28.85;18.65;;;19.80;99.90;;;;;;5031622;28;20249;-65
2023/06/29 05:59:23;;;;;;;28.20;19.70;;;20.00;99.90;;;;;;5031722;28;20059;-66
2023/06/29 06:01:49;;;;;;;27.45;18.75;;;19.90;99.90;;;;;;5013945;28;20044;-64
2023/06/29 06:04:14;;;;;;;34.03;20.30;;;20.10;99.90;;;;;;5030780;28;20195;-66
2023/06/29 06:06:40;;;;;;;28.38;19.73;;;20.10;99.90;;;;;;5013677;28;20198;-66
2023/06/29 06:09:06;;;;;;;29.23;18.65;;;20.30;99.90;;;;;;5030997;28;20054;-66
2023/06/29 06:11:32;;;;;;;33.92;18.95;;;20.40;99.90;;;;;;5030720;28;20042;-67
2023/06/29 06:13:57;;;;;;;26.92;18.80;;;20.40;99.90;;;;;;5014514;28;20044;-67
2023/06/29 06:16:23;;;;;;;29.15;19.20;;;20.40;99.90;;;;;;5031507;28;20994;-67
2023/06/29 06:18:49;;;;;;;31.02;18.58;;;20.70;99.90;;;;;;5031322;28;20044;-67
2023/06/29 06:21:15;;;;;;;29.40;19.38;;;20.80;99.90;;;;;;5030732;28;20303;-67
2023/06/29 06:23:41;;;;;;;26.02;18.13;;;20.80;99.90;;;;;;5030775;28;20039;-67
2023/06/29 06:26:07;;;;;;;26.67;17.33;;;20.90;99.90;;;;;;5031541;28;20127;-67
2023/06/29 06:28:33;;;;;;;29.10;18.75;;;21.00;99.90;;;;;;5030416;28;20328;-67
2023/06/29 06:30:59;;;;;;;25.85;17.33;;;21.10;99.90;;;;;;5030089;28;20171;-67
2023/06/29 06:33:24;;;;;;;26.60;18.27;;;21.10;99.90;;;;;;5030085;28;20036;-67
2023/06/29 06:35:50;;;;;;;29.02;17.90;;;21.00;99.90;;;;;;5028869;28;20036;-67
2023/06/29 06:38:16;;;;;;;28.23;17.38;;;21.00;99.90;;;;;;5029492;28;20626;-67
2023/06/29 06:40:41;;;;;;;29.02;17.70;;;21.00;99.90;;;;;;5030129;28;20052;-67
2023/06/29 06:43:07;;;;;;;25.52;17.63;;;21.00;99.90;;;;;;5028691;28;20334;-67
2023/06/29 06:45:33;;;;;;;27.75;18.00;;;21.20;99.90;;;;;;5011207;28;20363;-68
2023/06/29 06:47:58;;;;;;;23.73;15.98;;;21.10;99.90;;;;;;5030228;28;20309;-67
2023/06/29 06:50:24;;;;;;;26.13;17.50;;;21.20;99.90;;;;;;5029794;28;20881;-67
2023/06/29 06:52:50;;;;;;;23.58;15.88;;;21.20;99.90;;;;;;5030022;28;20044;-67
2023/06/29 06:55:15;;;;;;;28.25;17.98;;;21.20;99.90;;;;;;5029789;28;20322;-66
2023/06/29 06:57:41;;;;;;;23.63;16.60;;;21.10;99.90;;;;;;5030044;28;20044;-67
2023/06/29 07:00:11;;;;;;;27.98;17.83;;;21.10;99.90;;;;;;5029977;28;20246;-67
2023/06/29 07:02:37;;;;;;;26.40;17.00;;;21.10;99.90;;;;;;5030037;28;20113;-65
2023/06/29 07:05:04;;;;;;;25.90;16.73;;;21.10;99.90;;;;;;5030792;28;20048;-67
2023/06/29 07:07:31;;;;;;;30.65;18.52;;;21.10;99.90;;;;;;5012129;28;20041;-67
2023/06/29 07:09:56;;;;;;;26.58;16.98;;;20.90;99.90;;;;;;5031236;28;20056;-66
2023/06/29 07:12:22;;;;;;;26.67;18.27;;;20.90;99.90;;;;;;5029665;28;20354;-66
2023/06/29 07:14:49;;;;;;;23.65;17.00;;;21.00;99.90;;;;;;5029300;28;20178;-66
2023/06/29 07:17:14;;;;;;;30.10;18.80;;;21.10;99.90;;;;;;5029909;28;20036;-67
2023/06/29 07:19:40;;;;;;;29.15;18.20;;;21.00;99.90;;;;;;5029793;28;20079;-67
2023/06/29 07:22:06;;;;;;;30.75;18.25;;;21.00;99.90;;;;;;5030476;22;20295;-66
2023/06/29 07:24:32;;;;;;;26.05;18.42;;;21.00;99.90;;;;;;4990134;28;20363;-67
2023/06/29 07:26:58;;;;;;;28.92;18.17;;;21.00;99.90;;;;;;4987734;28;20496;-68
2023/06/29 07:29:24;;;;;;;29.35;18.13;;;21.00;99.90;;;;;;4986147;28;20478;-67
2023/06/29 07:31:50;;;;;;;27.35;19.00;;;20.90;99.90;;;;;;4969142;28;20354;-67
2023/06/29 07:34:16;;;;;;;28.60;18.65;;;21.00;99.90;;;;;;4986239;28;20320;-67
2023/06/29 07:36:41;;;;;;;28.73;17.55;;;20.80;99.90;;;;;;4986198;28;21025;-67
2023/06/29 07:39:07;;;;;;;28.10;18.88;;;20.90;99.90;;;;;;4986427;28;20350;-66
2023/06/29 07:41:33;;;;;;;26.63;17.85;;;20.80;99.90;;;;;;4986626;28;20328;-67
2023/06/29 07:44:00;;;;;;;30.90;18.42;;;20.80;99.90;;;;;;4969688;28;20885;-67
2023/06/29 07:46:25;;;;;;;27.55;17.08;;;20.80;99.90;;;;;;5060812;28;20516;-67
2023/06/29 07:48:51;;;;;;;26.38;17.45;;;20.80;99.90;;;;;;5068092;28;20562;-67
2023/06/29 07:51:17;;;;;;;28.15;17.98;;;20.80;99.90;;;;;;5068987;28;20294;-66
2023/06/29 07:53:43;;;;;;;27.50;17.83;;;20.60;99.90;;;;;;5069053;28;20217;-67
2023/06/29 07:56:09;;;;;;;31.00;18.83;;;20.80;99.90;;;;;;5067478;28;20050;-67
2023/06/29 07:58:35;;;;;;;32.15;19.52;;;20.80;99.90;;;;;;5069845;28;20109;-67
2023/06/29 08:01:01;;;;;;;31.30;19.75;;;20.50;99.90;;;;;;5069972;28;20250;-67
2023/06/29 08:03:27;;;;;;;27.77;17.58;;;20.70;99.90;;;;;;5070025;28;20887;-67
2023/06/29 08:05:53;;;;;;;29.40;18.75;;;20.70;99.90;;;;;;5069901;28;20134;-66
2023/06/29 08:08:20;;;;;;;31.30;19.58;;;20.70;99.90;;;;;;5071032;28;20036;-67
2023/06/29 08:10:49;;;;;;;29.67;19.40;;;20.70;99.90;;;;;;5070905;28;20886;-66
2023/06/29 08:13:18;;;;;;;31.15;18.60;;;20.70;99.90;;;;;;5070668;28;20039;-66
2023/06/29 08:15:43;;;;;;;28.13;19.02;;;20.80;99.90;;;;;;5068621;28;20581;-66
2023/06/29 08:18:09;;;;;;;35.65;21.73;;;21.00;99.90;;;;;;5070627;28;20074;-66
2023/06/29 08:20:34;;;;;;;28.60;19.38;;;20.90;99.90;;;;;;5073583;28;20298;-66
2023/06/29 08:23:00;;;;;;;32.95;18.70;;;20.80;99.90;;;;;;5056595;28;20204;-66
2023/06/29 08:25:26;;;;;;;27.38;19.02;;;21.10;99.90;;;;;;5067436;28;20372;-67
2023/06/29 08:27:51;;;;;;;31.10;18.98;;;21.00;99.90;;;;;;5065654;28;20071;-66
2023/06/29 08:30:17;;;;;;;28.67;18.17;;;21.00;99.90;;;;;;5072646;28;20136;-66
2023/06/29 08:32:43;;;;;;;27.85;18.00;;;21.10;99.90;;;;;;5072258;28;20196;-66
2023/06/29 08:35:09;;;;;;;28.40;18.25;;;21.10;99.90;;;;;;5072998;28;20608;-66
2023/06/29 08:37:35;;;;;;;29.85;18.95;;;21.10;99.90;;;;;;5074769;28;20040;-66
2023/06/29 08:40:03;;;;;;;29.00;17.63;;;21.10;99.90;;;;;;5073102;28;20215;-66
2023/06/29 08:42:29;;;;;;;28.30;17.95;;;21.20;99.90;;;;;;5072658;28;20054;-66
2023/06/29 08:44:54;;;;;;;30.48;18.02;;;21.30;99.90;;;;;;5071936;28;20220;-66
2023/06/29 08:47:22;;;;;;;27.65;18.15;;;21.30;99.90;;;;;;5073354;28;20821;-66
2023/06/29 08:49:51;;;;;;;26.88;16.42;;;21.40;99.90;;;;;;5073258;28;20039;-66
2023/06/29 08:52:18;;;;;;;28.33;19.15;;;21.40;99.90;;;;;;5071319;28;20039;-66
2023/06/29 08:54:44;;;;;;;27.88;17.08;;;21.40;99.90;;;;;;5072404;28;20050;-66
2023/06/29 08:57:10;;;;;;;29.58;18.25;;;21.60;99.90;;;;;;5073475;28;20200;-66
2023/06/29 08:59:40;;;;;;;28.08;17.38;;;21.60;99.90;;;;;;5072837;28;20842;-66
2023/06/29 09:02:06;;;;;;;28.63;18.48;;;21.60;99.90;;;;;;5069445;28;20038;-66
2023/06/29 09:04:32;;;;;;;28.50;18.77;;;21.80;99.90;;;;;;5073150;28;20216;-66
2023/06/29 09:06:57;;;;;;;29.33;18.67;;;21.80;99.90;;;;;;5072037;28;20923;-66
2023/06/29 09:09:24;;;;;;;27.23;18.60;;;21.90;99.90;;;;;;5072389;27;20387;-66
2023/06/29 09:11:50;;;;;;;28.00;17.55;;;21.90;99.90;;;;;;5071965;28;20047;-66
2023/06/29 09:14:16;;;;;;;29.05;18.80;;;22.10;99.90;;;;;;5072338;28;20043;-68
2023/06/29 09:17:01;;;;;;;31.20;18.95;;;22.00;99.90;;;;;;5072253;28;20032;-66
2023/06/29 09:19:27;;;;;;;36.25;22.45;;;22.10;99.90;;;;;;5074263;28;20565;-66
2023/06/29 09:21:53;;;;;;;28.75;20.80;;;22.30;99.90;;;;;;5072342;28;20047;-66
2023/06/29 09:24:19;;;;;;;35.55;21.45;;;22.20;99.90;;;;;;5070526;28;20391;-66
2023/06/29 09:26:49;;;;;;;31.40;20.88;;;22.10;99.90;;;;;;5071671;28;20789;-66
2023/06/29 09:29:16;;;;;;;30.25;20.80;;;22.00;99.90;;;;;;5070921;28;20273;-66
2023/06/29 09:31:53;;;;;;;33.75;21.77;;;22.10;99.90;;;;;;5071388;28;20227;-66
2023/06/29 09:34:21;;;;;;;34.28;23.27;;;22.10;99.90;;;;;;5083716;27;20138;-66
2023/06/29 09:36:48;;;;;;;34.28;21.55;;;22.10;99.90;;;;;;5092165;27;20067;-66
2023/06/29 09:39:15;;;;;;;35.28;22.80;;;22.20;99.90;;;;;;5092207;27;20035;-66
2023/06/29 09:41:56;;;;;;;35.72;23.02;;;22.20;99.90;;;;;;5091734;27;20778;-66
2023/06/29 09:44:26;;;;;;;31.35;21.50;;;22.20;99.90;;;;;;5092363;27;20138;-66
2023/06/29 09:47:03;;;;;;;31.35;22.02;;;22.40;99.90;;;;;;5092041;27;20108;-66
2023/06/29 09:49:29;;;;;;;33.20;21.67;;;22.40;99.90;;;;;;5092423;27;20039;-66
2023/06/29 09:52:04;;;;;;;37.90;23.02;;;22.40;99.90;;;;;;5091316;27;20099;-66
2023/06/29 09:54:36;;;;;;;34.47;21.88;;;22.50;99.90;;;;;;5090895;27;20046;-66
2023/06/29 09:57:06;;;;;;;32.25;22.20;;;22.40;99.90;;;;;;5091387;27;20090;-66
2023/06/29 09:59:31;;;;;;;35.80;23.17;;;22.40;99.90;;;;;;5091187;27;20043;-66
2023/06/29 10:02:01;;;;;;;33.40;23.00;;;22.40;99.90;;;;;;5091772;27;20250;-65
2023/06/29 10:04:27;;;;;;;33.50;21.92;;;22.10;99.90;;;;;;5089511;27;20054;-66
2023/06/29 10:06:59;;;;;;;34.42;21.92;;;22.20;99.90;;;;;;5091824;27;20235;-65
2023/06/29 10:09:25;;;;;;;34.90;21.17;;;21.90;99.90;;;;;;5093307;27;20035;-65
2023/06/29 10:11:54;;;;;;;33.42;22.27;;;21.80;99.90;;;;;;5088939;27;20306;-66
2023/06/29 10:14:21;;;;;;;34.13;21.30;;;21.80;99.90;;;;;;5091680;27;20142;-65
2023/06/29 10:16:50;;;;;;;32.42;21.17;;;21.90;99.90;;;;;;5092075;27;20227;-65
2023/06/29 10:19:20;;;;;;;33.00;21.52;;;21.70;99.90;;;;;;5091639;27;20100;-66
2023/06/29 10:21:49;;;;;;;29.80;20.88;;;21.70;99.90;;;;;;5091293;27;20043;-66
2023/06/29 10:24:21;;;;;;;30.38;21.02;;;21.80;99.90;;;;;;5090249;27;20039;-66
2023/06/29 10:26:48;;;;;;;30.48;20.02;;;21.80;99.90;;;;;;5091246;27;20031;-66
2023/06/29 10:29:14;;;;;;;32.03;22.08;;;21.90;99.90;;;;;;5087504;27;20935;-66
2023/06/29 10:31:48;;;;;;;33.97;23.48;;;21.90;99.90;;;;;;5091325;27;20031;-66
2023/06/29 10:34:14;;;;;;;29.27;20.77;;;21.90;99.90;;;;;;5065922;27;20341;-66
2023/06/29 10:36:45;;;;;;;31.77;23.30;;;21.70;99.90;;;;;;4990864;27;20369;-66
2023/06/29 10:39:42;;;;;;;36.55;24.73;;;21.60;99.90;;;;;;4973599;28;20362;-66
2023/06/29 10:42:22;;;;;;;31.13;22.52;;;21.60;99.90;;;;;;5087830;27;20280;-66
2023/06/29 10:44:48;;;;;;;33.90;24.13;;;21.50;99.90;;;;;;5088910;27;20231;-66
2023/06/29 10:47:27;;;;;;;34.42;24.13;;;21.60;99.90;;;;;;5091937;27;20907;-66
2023/06/29 10:50:08;;;;;;;33.35;23.35;;;21.40;99.90;;;;;;5090701;27;20039;-66
2023/06/29 10:52:35;;;;;;;39.92;24.88;;;21.50;99.90;;;;;;5089403;27;20891;-67
2023/06/29 10:55:18;;;;;;;38.88;24.15;;;21.40;99.90;;;;;;5091546;27;20050;-66
2023/06/29 10:57:59;;;;;;;34.80;23.92;;;21.20;99.90;;;;;;5092240;27;20035;-66
2023/06/29 11:00:26;;;;;;;32.28;21.95;;;21.30;99.90;;;;;;5092237;27;20103;-66
2023/06/29 11:02:53;;;;;;;32.17;21.85;;;21.40;99.90;;;;;;5089091;27;20083;-66
2023/06/29 11:05:20;;;;;;;30.00;20.90;;;21.40;99.90;;;;;;5090530;27;20071;-67
2023/06/29 11:07:53;;;;;;;29.10;20.50;;;21.30;99.90;;;;;;5090708;27;20273;-66
2023/06/29 11:10:20;;;;;;;27.77;18.83;;;21.20;99.90;;;;;;5091150;27;20046;-66
2023/06/29 11:12:48;;;;;;;29.00;21.10;;;21.20;99.90;;;;;;5089860;27;20219;-66
2023/06/29 11:15:16;;;;;;;30.20;19.58;;;21.10;99.90;;;;;;5090238;27;20571;-68
2023/06/29 11:17:43;;;;;;;30.15;20.52;;;21.20;99.90;;;;;;5090777;27;20095;-66
2023/06/29 11:20:16;;;;;;;29.77;20.08;;;21.30;99.90;;;;;;5090031;27;20027;-67
2023/06/29 11:22:43;;;;;;;27.27;19.98;;;21.40;99.90;;;;;;5090083;27;20046;-66
2023/06/29 11:25:16;;;;;;;26.52;20.20;;;21.50;99.90;;;;;;5089352;27;20049;-65
2023/06/29 11:27:42;;;;;;;29.38;21.60;;;21.60;99.90;;;;;;5090386;27;20622;-66
2023/06/29 11:30:10;;;;;;;31.73;22.10;;;21.60;99.90;;;;;;5090644;27;20050;-66
2023/06/29 11:32:40;;;;;;;31.55;20.98;;;21.60;99.90;;;;;;5090133;27;20039;-66
2023/06/29 11:35:09;;;;;;;30.98;20.80;;;21.70;99.90;;;;;;5090310;27;20271;-66
2023/06/29 11:37:35;;;;;;;29.52;21.02;;;21.80;99.90;;;;;;5090412;27;20035;-66
2023/06/29 11:40:07;;;;;;;30.48;20.83;;;21.80;99.90;;;;;;5081998;27;20106;-66
2023/06/29 11:42:36;;;;;;;26.20;19.60;;;22.00;99.90;;;;;;5068644;28;20051;-66
2023/06/29 11:45:09;;;;;;;31.55;21.38;;;22.00;99.90;;;;;;5067275;28;20581;-66
2023/06/29 11:47:36;;;;;;;29.52;21.10;;;22.20;99.90;;;;;;5070059;28;20293;-66
2023/06/29 11:50:04;;;;;;;31.92;20.05;;;22.20;99.90;;;;;;5069891;28;20558;-66
2023/06/29 11:52:31;;;;;;;31.50;20.70;;;22.30;99.90;;;;;;5072122;28;20304;-66
2023/06/29 11:55:00;;;;;;;29.92;21.15;;;22.20;99.90;;;;;;5070932;28;20036;-66
2023/06/29 11:57:30;;;;;;;28.90;19.90;;;22.10;99.90;;;;;;5073577;27;20605;-66
2023/06/29 11:59:55;;;;;;;31.98;22.05;;;22.10;99.90;;;;;;5073656;28;20036;-66
2023/06/29 12:02:22;;;;;;;33.30;22.35;;;22.00;99.90;;;;;;5072609;28;20040;-66
2023/06/29 12:04:58;;;;;;;31.05;21.23;;;22.00;99.90;;;;;;5072214;28;20044;-67
2023/06/29 12:07:41;;;;;;;32.47;21.27;;;22.00;99.90;;;;;;5073970;28;20047;-66
2023/06/29 12:10:20;;;;;;;34.38;20.80;;;22.00;99.90;;;;;;5074105;28;20093;-66
2023/06/29 12:12:48;;;;;;;29.80;20.85;;;22.10;99.90;;;;;;5072943;28;20570;-66
2023/06/29 12:15:19;;;;;;;29.40;20.75;;;22.20;99.90;;;;;;5072235;28;20051;-66
2023/06/29 12:17:46;;;;;;;30.75;19.90;;;22.30;99.90;;;;;;5074092;28;20071;-67
2023/06/29 12:20:20;;;;;;;35.13;21.98;;;22.20;99.90;;;;;;5073854;28;20035;-66
2023/06/29 12:22:48;;;;;;;32.00;20.65;;;22.20;99.90;;;;;;5073425;28;20139;-70
2023/06/29 12:25:16;;;;;;;34.72;21.67;;;22.20;99.90;;;;;;5074196;28;20546;-70
2023/06/29 12:27:46;;;;;;;32.75;22.35;;;22.10;99.90;;;;;;5074428;27;20048;-70
2023/06/29 12:30:15;;;;;;;32.95;22.85;;;22.30;99.90;;;;;;5072421;28;20382;-69